Time;durP1;ratioP1;P1;durP2;ratioP2;P2;SDS_P1;SDS_P2;PMS_P1;PMS_P2;Temp;Humidity;BMP_temperature;BMP_pressure;BME280_temperature;BME280_humidity;BME280_pressure;Samples;Min_cycle;Max_cycle;Signal;HPM_P1;HPM_P2
2021/12/28 00:00:17;;;;;;;13.85;8.75;;;;;;;;;;5024453;28;20033;-51
2021/12/28 00:02:47;;;;;;;13.70;8.90;;;;;;;;;;5031209;28;20041;-48
2021/12/28 00:05:14;;;;;;;15.20;8.18;;;;;;;;;;5031254;28;20030;-50
2021/12/28 00:07:40;;;;;;;9.63;8.60;;;;;;;;;;5034083;28;20048;-48
2021/12/28 00:10:09;;;;;;;13.73;9.32;;;;;;;;;;5019263;28;20037;-55
2021/12/28 00:12:37;;;;;;;13.65;8.98;;;;;;;;;;5028410;28;20371;-48
2021/12/28 00:15:08;;;;;;;12.45;8.38;;;;;;;;;;5026100;28;20021;-50
2021/12/28 00:20:18;;;;;;;13.68;8.57;;;;;;;;;;5023581;28;20054;-51
2021/12/28 00:22:44;;;;;;;12.20;7.82;;;;;;;;;;5022634;28;20036;-49
2021/12/28 00:25:11;;;;;;;14.80;8.55;;;;;;;;;;5026343;28;20038;-48
2021/12/28 00:27:38;;;;;;;10.75;8.25;;;;;;;;;;5023697;28;20037;-49
2021/12/28 00:30:05;;;;;;;11.60;7.45;;;;;;;;;;5024154;28;20486;-48
2021/12/28 00:32:31;;;;;;;12.88;7.97;;;;;;;;;;5030239;28;20390;-51
2021/12/28 00:34:57;;;;;;;9.50;6.75;;;;;;;;;;5022601;28;20108;-53
2021/12/28 00:37:23;;;;;;;7.95;6.45;;;;;;;;;;5027361;28;20107;-49
2021/12/28 00:39:48;;;;;;;8.80;6.70;;;;;;;;;;5022370;28;20378;-49
2021/12/28 00:42:14;;;;;;;7.68;6.75;;;;;;;;;;5029356;28;20036;-52
2021/12/28 00:44:40;;;;;;;8.65;7.22;;;;;;;;;;5026391;28;20098;-49
2021/12/28 00:47:06;;;;;;;10.80;7.40;;;;;;;;;;5027524;28;20389;-48
2021/12/28 00:49:32;;;;;;;9.25;6.50;;;;;;;;;;5027645;28;20025;-52
2021/12/28 00:51:57;;;;;;;7.30;6.30;;;;;;;;;;5029323;28;20064;-53
2021/12/28 00:54:23;;;;;;;9.15;6.63;;;;;;;;;;5019498;28;20030;-49
2021/12/28 00:56:49;;;;;;;7.75;6.32;;;;;;;;;;5031692;28;20029;-51
2021/12/28 00:59:14;;;;;;;8.35;6.22;;;;;;;;;;5025270;28;20029;-49
2021/12/28 01:01:40;;;;;;;9.27;6.65;;;;;;;;;;5025759;28;20359;-53
2021/12/28 01:04:06;;;;;;;10.98;6.88;;;;;;;;;;5024476;28;20053;-56
2021/12/28 01:06:32;;;;;;;11.13;6.35;;;;;;;;;;5033374;28;20112;-50
2021/12/28 01:08:58;;;;;;;10.70;6.50;;;;;;;;;;5030955;28;20029;-55
2021/12/28 01:11:24;;;;;;;7.72;6.60;;;;;;;;;;5037240;28;20943;-55
2021/12/28 01:13:49;;;;;;;7.38;6.65;;;;;;;;;;5036644;28;20025;-55
2021/12/28 01:16:16;;;;;;;12.40;6.53;;;;;;;;;;5026464;28;20083;-52
2021/12/28 01:18:42;;;;;;;10.13;6.72;;;;;;;;;;5032378;28;20064;-49
2021/12/28 01:21:08;;;;;;;10.68;6.75;;;;;;;;;;5027564;28;20029;-52
2021/12/28 01:23:35;;;;;;;8.05;6.60;;;;;;;;;;5035490;28;20060;-55
2021/12/28 01:26:01;;;;;;;9.88;7.25;;;;;;;;;;5028665;28;20038;-48
2021/12/28 01:28:27;;;;;;;9.45;7.20;;;;;;;;;;5015925;28;20033;-55
2021/12/28 01:30:53;;;;;;;12.98;7.05;;;;;;;;;;5033233;28;20037;-50
2021/12/28 01:33:18;;;;;;;6.75;6.05;;;;;;;;;;5028107;28;20049;-48
2021/12/28 01:35:44;;;;;;;12.15;6.70;;;;;;;;;;5030009;28;20025;-49
2021/12/28 01:38:10;;;;;;;8.40;6.63;;;;;;;;;;5030119;28;20048;-53
2021/12/28 01:40:40;;;;;;;8.38;6.18;;;;;;;;;;5032572;28;20045;-55
2021/12/28 01:43:18;;;;;;;7.18;6.00;;;;;;;;;;5029558;28;20037;-55
2021/12/28 01:45:50;;;;;;;7.82;5.65;;;;;;;;;;5029082;28;20060;-52
2021/12/28 01:48:26;;;;;;;10.27;6.50;;;;;;;;;;5025220;28;20037;-47
2021/12/28 01:50:56;;;;;;;10.90;6.45;;;;;;;;;;5030837;28;20029;-53
2021/12/28 01:53:23;;;;;;;11.65;6.65;;;;;;;;;;5034869;28;20049;-52
2021/12/28 01:55:51;;;;;;;8.85;6.72;;;;;;;;;;5032439;28;20039;-54
2021/12/28 01:58:17;;;;;;;8.15;7.05;;;;;;;;;;5029825;28;20064;-54
2021/12/28 02:00:46;;;;;;;9.38;7.03;;;;;;;;;;5026095;28;20061;-54
2021/12/28 02:03:14;;;;;;;18.25;7.57;;;;;;;;;;5029116;28;20037;-53
2021/12/28 02:05:40;;;;;;;7.70;6.88;;;;;;;;;;5035218;28;20108;-50
2021/12/28 02:08:08;;;;;;;20.73;6.95;;;;;;;;;;5030428;28;20467;-52
2021/12/28 02:10:36;;;;;;;7.13;6.53;;;;;;;;;;5025265;28;20021;-52
2021/12/28 02:13:03;;;;;;;9.18;6.55;;;;;;;;;;5030508;28;20033;-51
2021/12/28 02:15:29;;;;;;;9.15;7.00;;;;;;;;;;5029830;28;20105;-51
2021/12/28 02:17:55;;;;;;;16.65;6.93;;;;;;;;;;5024820;28;20140;-54
2021/12/28 02:20:21;;;;;;;10.82;7.53;;;;;;;;;;5025218;28;20129;-50
2021/12/28 02:22:47;;;;;;;10.18;6.78;;;;;;;;;;5022093;28;20103;-54
2021/12/28 02:25:14;;;;;;;10.95;6.70;;;;;;;;;;5023059;28;20029;-53
2021/12/28 02:27:40;;;;;;;8.50;6.78;;;;;;;;;;5028353;28;20144;-51
2021/12/28 02:30:10;;;;;;;15.50;6.57;;;;;;;;;;5031308;28;20044;-53
2021/12/28 02:32:38;;;;;;;12.40;8.63;;;;;;;;;;5032193;28;20036;-52
2021/12/28 02:35:12;;;;;;;10.95;8.05;;;;;;;;;;5023551;28;20034;-53
2021/12/28 02:37:38;;;;;;;12.70;7.72;;;;;;;;;;5026302;28;20030;-54
2021/12/28 02:40:06;;;;;;;13.07;8.68;;;;;;;;;;5032527;28;20076;-51
2021/12/28 02:42:32;;;;;;;13.77;8.32;;;;;;;;;;5036744;28;20034;-55
2021/12/28 02:45:10;;;;;;;15.30;8.10;;;;;;;;;;5026695;28;20076;-48
2021/12/28 02:47:37;;;;;;;16.02;7.70;;;;;;;;;;5017097;28;20033;-51
2021/12/28 02:50:06;;;;;;;14.02;7.47;;;;;;;;;;5030891;28;20076;-49
2021/12/28 02:52:36;;;;;;;11.88;6.78;;;;;;;;;;5032260;28;20041;-48
2021/12/28 02:55:04;;;;;;;16.50;8.95;;;;;;;;;;5029220;28;20026;-53
2021/12/28 02:57:30;;;;;;;16.92;9.38;;;;;;;;;;5026814;28;20044;-53
2021/12/28 02:59:56;;;;;;;15.32;9.52;;;;;;;;;;5026313;28;20025;-55
2021/12/28 03:02:22;;;;;;;13.50;7.80;;;;;;;;;;5032305;28;20048;-56
2021/12/28 03:04:48;;;;;;;18.95;7.70;;;;;;;;;;5033877;28;20029;-51
2021/12/28 03:07:14;;;;;;;17.20;7.95;;;;;;;;;;5026230;28;20040;-50
2021/12/28 03:09:40;;;;;;;13.10;7.90;;;;;;;;;;5030460;28;20068;-55
2021/12/28 03:12:07;;;;;;;10.00;7.38;;;;;;;;;;5028430;28;20038;-53
2021/12/28 03:14:33;;;;;;;12.73;8.32;;;;;;;;;;5035043;28;20410;-49
2021/12/28 03:16:59;;;;;;;12.98;7.78;;;;;;;;;;5033630;28;20032;-55
2021/12/28 03:19:25;;;;;;;15.23;8.35;;;;;;;;;;5028093;28;20037;-54
2021/12/28 03:21:51;;;;;;;10.00;7.32;;;;;;;;;;5017719;28;20166;-55
2021/12/28 03:24:17;;;;;;;16.77;8.18;;;;;;;;;;5016182;28;20391;-53
2021/12/28 03:26:44;;;;;;;15.45;8.43;;;;;;;;;;5028916;28;20025;-55
2021/12/28 03:29:10;;;;;;;11.85;7.97;;;;;;;;;;5034552;28;20029;-55
2021/12/28 03:31:36;;;;;;;19.15;8.15;;;;;;;;;;5026668;28;20037;-53
2021/12/28 03:34:01;;;;;;;16.17;8.52;;;;;;;;;;5026494;28;20084;-55
2021/12/28 03:36:30;;;;;;;12.77;7.75;;;;;;;;;;5027908;28;20038;-54
2021/12/28 03:39:00;;;;;;;15.73;8.77;;;;;;;;;;5026246;28;20040;-56
2021/12/28 03:41:28;;;;;;;18.45;9.10;;;;;;;;;;5025271;28;20037;-55
2021/12/28 03:43:55;;;;;;;14.25;9.38;;;;;;;;;;5022409;28;20032;-54
2021/12/28 03:46:22;;;;;;;12.93;8.80;;;;;;;;;;5019509;28;20032;-55
2021/12/28 03:48:48;;;;;;;11.38;8.43;;;;;;;;;;5028574;28;20046;-55
2021/12/28 03:51:14;;;;;;;16.60;8.88;;;;;;;;;;5029873;28;20121;-55
2021/12/28 03:53:41;;;;;;;11.85;8.38;;;;;;;;;;5026772;28;20056;-57
2021/12/28 03:56:09;;;;;;;14.30;9.13;;;;;;;;;;5021607;28;20040;-52
2021/12/28 03:58:38;;;;;;;14.75;8.60;;;;;;;;;;5029591;28;20065;-55
2021/12/28 04:01:05;;;;;;;13.38;8.40;;;;;;;;;;5025654;28;20076;-55
2021/12/28 04:03:31;;;;;;;12.07;8.02;;;;;;;;;;5027916;28;20395;-56
2021/12/28 04:05:59;;;;;;;12.95;8.02;;;;;;;;;;5029045;28;20033;-56
2021/12/28 04:08:27;;;;;;;13.35;7.82;;;;;;;;;;5027706;28;20060;-54
2021/12/28 04:11:00;;;;;;;15.65;8.02;;;;;;;;;;5031062;28;20374;-52
2021/12/28 04:13:26;;;;;;;13.30;7.82;;;;;;;;;;5021497;28;20386;-54
2021/12/28 04:15:52;;;;;;;13.75;7.68;;;;;;;;;;5026260;28;20025;-51
2021/12/28 04:18:19;;;;;;;12.73;7.80;;;;;;;;;;5027091;28;20037;-53
2021/12/28 04:20:45;;;;;;;12.80;7.03;;;;;;;;;;5027000;28;20525;-54
2021/12/28 04:23:10;;;;;;;11.48;7.68;;;;;;;;;;5026163;28;20030;-55
2021/12/28 04:25:36;;;;;;;14.60;7.38;;;;;;;;;;5029856;28;20037;-56
2021/12/28 04:28:02;;;;;;;16.40;7.05;;;;;;;;;;5020641;28;20129;-56
2021/12/28 04:30:28;;;;;;;15.25;6.63;;;;;;;;;;5021056;28;20077;-56
2021/12/28 04:32:54;;;;;;;13.38;7.35;;;;;;;;;;5021039;28;20064;-53
2021/12/28 04:35:20;;;;;;;13.30;6.80;;;;;;;;;;5031270;28;20035;-56
2021/12/28 04:37:45;;;;;;;16.35;7.18;;;;;;;;;;5031599;28;20541;-53
2021/12/28 04:40:12;;;;;;;17.60;7.00;;;;;;;;;;5026232;28;20041;-56
2021/12/28 04:42:40;;;;;;;13.65;7.18;;;;;;;;;;5023080;28;20041;-55
2021/12/28 04:45:08;;;;;;;12.00;6.60;;;;;;;;;;5025133;28;20035;-51
2021/12/28 04:47:34;;;;;;;16.40;7.30;;;;;;;;;;5023461;28;20029;-49
2021/12/28 04:50:00;;;;;;;12.15;6.22;;;;;;;;;;5028204;28;20047;-50
2021/12/28 04:52:29;;;;;;;14.43;7.13;;;;;;;;;;5032564;28;20040;-51
2021/12/28 04:54:54;;;;;;;18.73;7.13;;;;;;;;;;5027861;28;20501;-47
2021/12/28 04:57:20;;;;;;;11.43;6.35;;;;;;;;;;5032957;28;20025;-49
2021/12/28 04:59:46;;;;;;;12.68;6.97;;;;;;;;;;5035138;28;20029;-52
2021/12/28 05:02:12;;;;;;;15.43;7.85;;;;;;;;;;5021316;28;20033;-49
2021/12/28 05:04:38;;;;;;;15.70;7.25;;;;;;;;;;5023806;28;20041;-49
2021/12/28 05:07:04;;;;;;;13.02;7.03;;;;;;;;;;5023348;28;20033;-49
2021/12/28 05:09:30;;;;;;;17.85;7.68;;;;;;;;;;5021398;28;20030;-49
2021/12/28 05:11:56;;;;;;;16.55;7.35;;;;;;;;;;5032447;28;20029;-48
2021/12/28 05:14:22;;;;;;;17.38;6.80;;;;;;;;;;5030083;28;20066;-50
2021/12/28 05:16:48;;;;;;;17.95;7.00;;;;;;;;;;5024946;28;20033;-48
2021/12/28 05:19:15;;;;;;;12.15;6.85;;;;;;;;;;5018498;28;20049;-48
2021/12/28 05:21:42;;;;;;;17.10;7.70;;;;;;;;;;5020046;28;20076;-52
2021/12/28 05:24:08;;;;;;;15.50;7.50;;;;;;;;;;5024430;28;20121;-48
2021/12/28 05:26:34;;;;;;;17.50;7.05;;;;;;;;;;5029816;28;20147;-48
2021/12/28 05:29:00;;;;;;;12.60;6.60;;;;;;;;;;5024613;28;20041;-48
2021/12/28 05:31:27;;;;;;;14.35;7.28;;;;;;;;;;5027799;28;20060;-48
2021/12/28 05:33:54;;;;;;;17.02;6.88;;;;;;;;;;5024813;28;20037;-51
2021/12/28 05:36:21;;;;;;;12.40;7.13;;;;;;;;;;5031342;28;20033;-53
2021/12/28 05:38:47;;;;;;;14.40;7.25;;;;;;;;;;5025246;28;20021;-51
2021/12/28 05:41:13;;;;;;;18.48;7.72;;;;;;;;;;5020886;28;20033;-50
2021/12/28 05:43:38;;;;;;;16.38;7.38;;;;;;;;;;5024766;28;20043;-49
2021/12/28 05:46:04;;;;;;;17.50;7.50;;;;;;;;;;5020382;28;20033;-49
2021/12/28 05:48:30;;;;;;;18.45;7.30;;;;;;;;;;5021365;28;20029;-49
2021/12/28 05:50:56;;;;;;;12.45;6.68;;;;;;;;;;5028203;28;20025;-48
2021/12/28 05:53:22;;;;;;;18.40;7.15;;;;;;;;;;5036969;28;20034;-51
2021/12/28 05:55:47;;;;;;;20.35;7.32;;;;;;;;;;5030739;28;20070;-48
2021/12/28 05:58:13;;;;;;;17.65;7.57;;;;;;;;;;5035054;28;20040;-53
2021/12/28 06:00:39;;;;;;;17.08;6.78;;;;;;;;;;5030527;28;20391;-52
2021/12/28 06:03:06;;;;;;;15.30;7.53;;;;;;;;;;5033318;28;20061;-51
2021/12/28 06:05:32;;;;;;;16.05;6.85;;;;;;;;;;5033636;28;20030;-51
2021/12/28 06:07:58;;;;;;;14.10;6.78;;;;;;;;;;5035434;28;20021;-49
2021/12/28 06:10:23;;;;;;;18.45;7.53;;;;;;;;;;5031873;28;20028;-54
2021/12/28 06:12:49;;;;;;;16.10;7.72;;;;;;;;;;5022147;28;20425;-48
2021/12/28 06:15:16;;;;;;;12.60;6.88;;;;;;;;;;5024900;28;20053;-49
2021/12/28 06:17:41;;;;;;;16.73;7.38;;;;;;;;;;5032342;28;20050;-50
2021/12/28 06:20:08;;;;;;;18.55;7.90;;;;;;;;;;5029624;28;20432;-50
2021/12/28 06:22:34;;;;;;;12.68;7.60;;;;;;;;;;5031624;28;20428;-48
2021/12/28 06:25:00;;;;;;;16.70;7.57;;;;;;;;;;5024389;28;20087;-50
2021/12/28 06:27:26;;;;;;;14.38;7.47;;;;;;;;;;5032417;28;20033;-51
2021/12/28 06:29:51;;;;;;;14.18;7.10;;;;;;;;;;5038771;28;20040;-49
2021/12/28 06:32:17;;;;;;;15.48;6.88;;;;;;;;;;5026645;28;20391;-53
2021/12/28 06:34:43;;;;;;;19.05;6.85;;;;;;;;;;5027588;28;20025;-50
2021/12/28 06:37:09;;;;;;;10.63;6.68;;;;;;;;;;5025316;28;20034;-49
2021/12/28 06:39:35;;;;;;;16.52;7.50;;;;;;;;;;5032475;28;20436;-51
2021/12/28 06:42:00;;;;;;;16.83;7.57;;;;;;;;;;5027364;28;20371;-51
2021/12/28 06:44:26;;;;;;;16.92;6.82;;;;;;;;;;5026463;28;20041;-48
2021/12/28 06:46:53;;;;;;;12.85;7.63;;;;;;;;;;5028135;28;20033;-48
2021/12/28 06:49:19;;;;;;;17.45;7.57;;;;;;;;;;5028356;28;20029;-47
2021/12/28 06:51:44;;;;;;;14.40;6.93;;;;;;;;;;5021141;28;20091;-51
2021/12/28 06:54:11;;;;;;;14.35;7.22;;;;;;;;;;5026146;28;20055;-53
2021/12/28 06:56:37;;;;;;;23.20;7.63;;;;;;;;;;5033051;28;20099;-51
2021/12/28 06:59:03;;;;;;;15.05;7.10;;;;;;;;;;5031861;28;20533;-48
2021/12/28 07:01:29;;;;;;;10.75;6.80;;;;;;;;;;5029862;28;20171;-50
2021/12/28 07:03:54;;;;;;;18.48;7.20;;;;;;;;;;5020051;28;20505;-51
2021/12/28 07:06:23;;;;;;;14.63;7.05;;;;;;;;;;5024319;28;20635;-49
2021/12/28 07:08:49;;;;;;;16.02;7.63;;;;;;;;;;5034589;28;20037;-49
2021/12/28 07:11:16;;;;;;;28.83;11.13;;;;;;;;;;5029323;28;20989;-52
2021/12/28 07:13:41;;;;;;;32.45;10.77;;;;;;;;;;5033384;28;20048;-49
2021/12/28 07:16:07;;;;;;;21.45;9.65;;;;;;;;;;5026064;28;20029;-54
2021/12/28 07:18:33;;;;;;;18.77;10.07;;;;;;;;;;5020433;28;20396;-50
2021/12/28 07:21:00;;;;;;;24.50;10.38;;;;;;;;;;5026234;28;20038;-49
2021/12/28 07:23:26;;;;;;;46.35;10.80;;;;;;;;;;5033899;28;20219;-56
2021/12/28 07:25:54;;;;;;;56.03;11.70;;;;;;;;;;5031581;28;20033;-50
2021/12/28 07:28:21;;;;;;;19.58;9.55;;;;;;;;;;5026515;28;20049;-49
2021/12/28 07:30:47;;;;;;;22.40;9.77;;;;;;;;;;5030280;28;20029;-51
2021/12/28 07:33:14;;;;;;;19.52;11.10;;;;;;;;;;5032066;28;20029;-49
2021/12/28 07:35:39;;;;;;;14.95;10.30;;;;;;;;;;5032071;28;20032;-55
2021/12/28 07:38:05;;;;;;;17.70;10.00;;;;;;;;;;5032755;28;20029;-52
2021/12/28 07:40:31;;;;;;;14.50;9.40;;;;;;;;;;5027939;28;20080;-53
2021/12/28 07:42:57;;;;;;;23.70;11.95;;;;;;;;;;5029928;28;20030;-50
2021/12/28 07:45:23;;;;;;;23.92;13.27;;;;;;;;;;5028331;28;20032;-54
2021/12/28 07:47:49;;;;;;;18.90;11.25;;;;;;;;;;5033218;28;20108;-51
2021/12/28 07:50:16;;;;;;;21.33;10.68;;;;;;;;;;5028963;28;20038;-53
2021/12/28 07:52:43;;;;;;;15.48;9.48;;;;;;;;;;5028062;28;20029;-48
2021/12/28 07:55:11;;;;;;;16.83;8.93;;;;;;;;;;5024670;28;20038;-50
2021/12/28 07:57:37;;;;;;;17.05;9.18;;;;;;;;;;5031645;28;20033;-52
2021/12/28 08:00:15;;;;;;;22.27;9.77;;;;;;;;;;5029602;28;20045;-48
2021/12/28 08:02:43;;;;;;;16.15;8.45;;;;;;;;;;5021383;28;20386;-53
2021/12/28 08:05:10;;;;;;;20.27;8.65;;;;;;;;;;5034191;28;20123;-53
2021/12/28 08:07:36;;;;;;;16.60;8.60;;;;;;;;;;5023646;28;20024;-51
2021/12/28 08:10:03;;;;;;;17.38;8.27;;;;;;;;;;5025382;28;20031;-51
2021/12/28 08:12:29;;;;;;;13.35;7.90;;;;;;;;;;5029626;28;20029;-50
2021/12/28 08:14:55;;;;;;;17.55;7.95;;;;;;;;;;5033825;28;20036;-54
2021/12/28 08:17:20;;;;;;;22.00;8.25;;;;;;;;;;5031961;28;20065;-49
2021/12/28 08:19:46;;;;;;;11.63;7.72;;;;;;;;;;5027688;28;20132;-53
2021/12/28 08:22:12;;;;;;;18.63;7.82;;;;;;;;;;5028323;28;21944;-54
2021/12/28 08:24:38;;;;;;;19.55;9.38;;;;;;;;;;5018478;28;20041;-49
2021/12/28 08:27:04;;;;;;;15.98;7.03;;;;;;;;;;5032318;28;20029;-53
2021/12/28 08:29:30;;;;;;;10.73;6.32;;;;;;;;;;5019502;28;20025;-52
2021/12/28 08:31:55;;;;;;;15.70;7.97;;;;;;;;;;5024420;28;20040;-50
2021/12/28 08:34:21;;;;;;;13.80;6.38;;;;;;;;;;5019628;28;20040;-53
2021/12/28 08:36:47;;;;;;;13.80;6.63;;;;;;;;;;5031853;28;20041;-50
2021/12/28 08:39:13;;;;;;;14.45;6.88;;;;;;;;;;5029439;28;20183;-56
2021/12/28 08:41:39;;;;;;;18.17;7.32;;;;;;;;;;5027302;28;20030;-51
2021/12/28 08:44:05;;;;;;;17.08;7.43;;;;;;;;;;5025959;28;20032;-49
2021/12/28 08:46:31;;;;;;;15.05;7.88;;;;;;;;;;5031335;28;20025;-54
2021/12/28 08:48:57;;;;;;;13.13;7.03;;;;;;;;;;5028981;28;20052;-55
2021/12/28 08:51:22;;;;;;;20.08;9.00;;;;;;;;;;5026172;28;20029;-55
2021/12/28 08:53:48;;;;;;;14.20;9.85;;;;;;;;;;5028402;28;20113;-49
2021/12/28 08:56:14;;;;;;;21.23;10.40;;;;;;;;;;5020999;28;20074;-50
2021/12/28 08:58:40;;;;;;;17.20;11.27;;;;;;;;;;5027527;28;20025;-52
2021/12/28 09:01:06;;;;;;;22.70;9.57;;;;;;;;;;5012748;28;20057;-51
2021/12/28 09:03:32;;;;;;;24.70;13.75;;;;;;;;;;5022737;28;20080;-55
2021/12/28 09:06:00;;;;;;;24.40;12.73;;;;;;;;;;5023906;28;20037;-49
2021/12/28 09:08:26;;;;;;;20.40;10.85;;;;;;;;;;5037866;28;20394;-53
2021/12/28 09:10:52;;;;;;;21.20;8.98;;;;;;;;;;5032386;28;20033;-52
2021/12/28 09:13:18;;;;;;;12.57;7.28;;;;;;;;;;5030631;28;20040;-49
2021/12/28 09:15:45;;;;;;;21.65;9.55;;;;;;;;;;5024567;28;20111;-54
2021/12/28 09:18:11;;;;;;;20.40;8.20;;;;;;;;;;5027424;28;20037;-54
2021/12/28 09:20:37;;;;;;;19.23;8.20;;;;;;;;;;5024697;28;20463;-50
2021/12/28 09:23:03;;;;;;;15.45;6.60;;;;;;;;;;5030842;28;20042;-56
2021/12/28 09:25:29;;;;;;;21.65;7.40;;;;;;;;;;5022729;28;20117;-56
2021/12/28 09:27:55;;;;;;;17.30;7.18;;;;;;;;;;5020093;28;20502;-56
2021/12/28 09:30:21;;;;;;;14.55;6.72;;;;;;;;;;5029616;28;20025;-48
2021/12/28 09:32:47;;;;;;;28.15;7.88;;;;;;;;;;5037366;28;20029;-54
2021/12/28 09:35:15;;;;;;;31.27;8.55;;;;;;;;;;5026864;28;20034;-56
2021/12/28 09:37:40;;;;;;;16.65;8.13;;;;;;;;;;5027006;28;20083;-51
2021/12/28 09:40:09;;;;;;;23.52;7.43;;;;;;;;;;5027572;28;20425;-56
2021/12/28 09:42:36;;;;;;;21.92;7.38;;;;;;;;;;5026433;28;20044;-52
2021/12/28 09:45:03;;;;;;;18.80;8.20;;;;;;;;;;5033068;28;20044;-57
2021/12/28 09:47:29;;;;;;;35.22;9.50;;;;;;;;;;5030806;28;20036;-55
2021/12/28 09:49:55;;;;;;;18.35;9.27;;;;;;;;;;5028234;28;20098;-55
2021/12/28 09:52:20;;;;;;;19.98;10.82;;;;;;;;;;5021479;28;20017;-56
2021/12/28 09:54:46;;;;;;;22.27;9.82;;;;;;;;;;5027481;28;20056;-55
2021/12/28 09:57:16;;;;;;;23.35;10.60;;;;;;;;;;5033357;28;20087;-52
2021/12/28 09:59:43;;;;;;;20.15;9.70;;;;;;;;;;5052114;28;20037;-53
2021/12/28 10:02:10;;;;;;;20.02;9.20;;;;;;;;;;5025051;28;20068;-56
2021/12/28 10:05:13;;;;;;;18.27;9.27;;;;;;;;;;5024927;28;20033;-54
2021/12/28 10:07:48;;;;;;;17.95;9.23;;;;;;;;;;5026242;28;20044;-57
2021/12/28 10:10:14;;;;;;;23.25;10.32;;;;;;;;;;5028601;28;20045;-56
2021/12/28 10:12:49;;;;;;;19.00;9.65;;;;;;;;;;5028172;28;20117;-56
2021/12/28 10:15:22;;;;;;;19.05;9.63;;;;;;;;;;5028948;28;20063;-54
2021/12/28 10:17:51;;;;;;;25.27;10.35;;;;;;;;;;5027211;28;20033;-56
2021/12/28 10:20:26;;;;;;;29.92;11.02;;;;;;;;;;5023654;28;20580;-54
2021/12/28 10:22:58;;;;;;;26.10;12.38;;;;;;;;;;5026194;28;20561;-53
2021/12/28 10:25:24;;;;;;;25.83;12.80;;;;;;;;;;5028036;28;20453;-55
2021/12/28 10:28:01;;;;;;;25.98;15.45;;;;;;;;;;5026393;28;20037;-56
2021/12/28 10:30:42;;;;;;;27.00;15.55;;;;;;;;;;5025319;28;20529;-55
2021/12/28 10:33:11;;;;;;;25.27;14.02;;;;;;;;;;5026925;28;20029;-55
2021/12/28 10:35:44;;;;;;;32.58;14.98;;;;;;;;;;5026985;28;20037;-56
2021/12/28 10:38:11;;;;;;;;;;;;;;;;;;5011578;28;20155;-52
2021/12/28 10:40:43;;;;;;;28.67;15.13;;;;;;;;;;5029640;28;19921;-56
2021/12/28 10:43:12;;;;;;;38.25;16.17;;;;;;;;;;5029948;28;20100;-56
2021/12/28 10:45:50;;;;;;;33.05;17.17;;;;;;;;;;5028268;28;20036;-56
2021/12/28 10:48:21;;;;;;;40.28;21.42;;;;;;;;;;5034645;28;20087;-54
2021/12/28 10:51:01;;;;;;;31.38;14.85;;;;;;;;;;5029134;28;20033;-55
2021/12/28 10:53:36;;;;;;;31.45;15.23;;;;;;;;;;5034959;28;20032;-54
2021/12/28 10:56:06;;;;;;;39.25;16.75;;;;;;;;;;5022585;28;20030;-54
2021/12/28 10:58:41;;;;;;;33.65;16.67;;;;;;;;;;5047538;28;20025;-56
2021/12/28 11:01:14;;;;;;;34.97;17.20;;;;;;;;;;5019938;28;20132;-52
2021/12/28 11:03:51;;;;;;;36.88;17.20;;;;;;;;;;5028703;28;20036;-56
2021/12/28 11:06:24;;;;;;;38.03;17.20;;;;;;;;;;5028940;28;20474;-54
2021/12/28 11:08:55;;;;;;;34.45;19.35;;;;;;;;;;5020442;28;20075;-56
2021/12/28 11:11:24;;;;;;;35.35;17.90;;;;;;;;;;5028688;28;20040;-54
2021/12/28 11:13:58;;;;;;;45.83;21.63;;;;;;;;;;5030366;28;20029;-55
2021/12/28 11:16:26;;;;;;;42.65;21.40;;;;;;;;;;5024499;28;20033;-54
2021/12/28 11:18:54;;;;;;;48.30;24.63;;;;;;;;;;5031690;28;20038;-56
2021/12/28 11:21:27;;;;;;;46.60;22.75;;;;;;;;;;5024124;28;20110;-56
2021/12/28 11:23:55;;;;;;;63.80;29.20;;;;;;;;;;5028818;28;20044;-57
2021/12/28 11:26:26;;;;;;;75.07;30.50;;;;;;;;;;5031977;28;20065;-56
2021/12/28 11:29:04;;;;;;;70.47;31.08;;;;;;;;;;5024450;28;20534;-55
2021/12/28 11:31:33;;;;;;;61.15;29.17;;;;;;;;;;5024784;28;20033;-56
2021/12/28 11:34:11;;;;;;;51.05;24.60;;;;;;;;;;5026164;28;20071;-54
2021/12/28 11:36:46;;;;;;;43.13;22.90;;;;;;;;;;5024071;28;20479;-56
2021/12/28 11:39:18;;;;;;;43.15;18.38;;;;;;;;;;5029450;28;20033;-57
2021/12/28 11:41:45;;;;;;;29.95;16.17;;;;;;;;;;5035929;28;20126;-57
2021/12/28 11:44:12;;;;;;;34.65;14.30;;;;;;;;;;5025205;28;20056;-56
2021/12/28 11:46:38;;;;;;;42.92;19.50;;;;;;;;;;5032853;28;20065;-56
2021/12/28 11:49:06;;;;;;;43.88;18.50;;;;;;;;;;5029852;28;20065;-56
2021/12/28 11:51:32;;;;;;;40.00;19.08;;;;;;;;;;5033913;28;20117;-53
2021/12/28 11:54:02;;;;;;;47.90;21.48;;;;;;;;;;5034093;28;20112;-51
2021/12/28 11:56:33;;;;;;;69.80;28.52;;;;;;;;;;5031738;28;20037;-50
2021/12/28 11:59:06;;;;;;;62.58;27.50;;;;;;;;;;5024949;28;20502;-52
2021/12/28 12:01:34;;;;;;;74.35;27.40;;;;;;;;;;5021982;28;20022;-56
2021/12/28 12:04:00;;;;;;;74.55;30.45;;;;;;;;;;5028403;28;20044;-50
2021/12/28 12:07:01;;;;;;;70.20;34.40;;;;;;;;;;5032786;28;20025;-52
2021/12/28 12:09:28;;;;;;;67.03;32.67;;;;;;;;;;5024288;28;20034;-53
2021/12/28 12:12:11;;;;;;;73.43;32.22;;;;;;;;;;5033717;28;20032;-49
2021/12/28 12:15:00;;;;;;;71.80;33.00;;;;;;;;;;5042542;28;20483;-53
2021/12/28 12:17:31;;;;;;;67.68;26.65;;;;;;;;;;5021318;28;20340;-49
2021/12/28 12:20:05;;;;;;;56.63;24.05;;;;;;;;;;5027254;28;20041;-50
2021/12/28 12:22:38;;;;;;;53.72;22.27;;;;;;;;;;5027097;28;20041;-52
2021/12/28 12:25:07;;;;;;;44.22;18.20;;;;;;;;;;5027803;28;20045;-53
2021/12/28 12:27:38;;;;;;;45.95;18.85;;;;;;;;;;5030225;28;20036;-51
2021/12/28 12:30:24;;;;;;;49.50;19.13;;;;;;;;;;5031224;28;20034;-53
2021/12/28 12:33:05;;;;;;;45.22;17.73;;;;;;;;;;5035161;28;20041;-51
2021/12/28 12:35:35;;;;;;;37.65;18.10;;;;;;;;;;5027037;28;20034;-51
2021/12/28 12:38:23;;;;;;;53.42;21.67;;;;;;;;;;5029157;28;20509;-51
2021/12/28 12:40:56;;;;;;;53.63;24.05;;;;;;;;;;5030233;28;20043;-49
2021/12/28 12:43:25;;;;;;;45.55;21.98;;;;;;;;;;5024582;28;20045;-53
2021/12/28 12:45:50;;;;;;;43.42;22.13;;;;;;;;;;5022912;28;20040;-50
2021/12/28 12:48:37;;;;;;;42.60;22.85;;;;;;;;;;5027723;28;20018;-51
2021/12/28 12:51:21;;;;;;;47.13;21.30;;;;;;;;;;5035512;28;20037;-50
2021/12/28 12:53:56;;;;;;;55.08;25.05;;;;;;;;;;5033583;28;20065;-50
2021/12/28 12:56:22;;;;;;;64.53;27.52;;;;;;;;;;5027784;28;20108;-50
2021/12/28 12:58:51;;;;;;;53.58;26.58;;;;;;;;;;5030822;28;20029;-53
2021/12/28 13:01:37;;;;;;;82.82;32.83;;;;;;;;;;5025907;28;20279;-54
2021/12/28 13:04:26;;;;;;;65.05;25.65;;;;;;;;;;5020007;28;20045;-53
2021/12/28 13:07:07;;;;;;;54.92;22.92;;;;;;;;;;5022472;28;20025;-52
2021/12/28 13:09:36;;;;;;;52.47;23.70;;;;;;;;;;5019912;28;20033;-51
2021/12/28 13:12:06;;;;;;;51.67;18.80;;;;;;;;;;5027308;28;20064;-52
2021/12/28 13:14:33;;;;;;;33.92;14.73;;;;;;;;;;5023390;28;20037;-52
2021/12/28 13:17:17;;;;;;;25.95;13.68;;;;;;;;;;5029409;28;20021;-51
2021/12/28 13:20:01;;;;;;;29.90;15.55;;;;;;;;;;5024861;28;20092;-54
2021/12/28 13:22:29;;;;;;;34.05;15.45;;;;;;;;;;5020033;28;20099;-52
2021/12/28 13:24:56;;;;;;;39.63;18.25;;;;;;;;;;5018045;28;20033;-53
2021/12/28 13:27:22;;;;;;;47.15;22.23;;;;;;;;;;5022517;28;20026;-53
2021/12/28 13:29:48;;;;;;;43.55;22.30;;;;;;;;;;5026231;28;20105;-54
2021/12/28 13:32:16;;;;;;;49.00;22.05;;;;;;;;;;5032732;28;20508;-56
2021/12/28 13:35:09;;;;;;;45.92;20.17;;;;;;;;;;5027252;28;20064;-53
2021/12/28 13:37:44;;;;;;;47.00;21.20;;;;;;;;;;5029835;28;20042;-54
2021/12/28 13:40:12;;;;;;;47.08;19.45;;;;;;;;;;5029258;28;20033;-51
2021/12/28 13:42:44;;;;;;;38.65;20.30;;;;;;;;;;5030333;28;20033;-53
2021/12/28 13:45:11;;;;;;;37.40;20.27;;;;;;;;;;5024244;28;20501;-53
2021/12/28 13:47:41;;;;;;;45.22;23.15;;;;;;;;;;5018729;28;20037;-55
2021/12/28 13:50:11;;;;;;;47.85;22.95;;;;;;;;;;5023295;28;20057;-54
2021/12/28 13:52:46;;;;;;;36.15;18.70;;;;;;;;;;5029775;28;20029;-54
2021/12/28 13:55:14;;;;;;;38.13;21.10;;;;;;;;;;5022036;28;20402;-53
2021/12/28 13:57:40;;;;;;;39.22;21.08;;;;;;;;;;5027863;28;20367;-56
2021/12/28 14:00:10;;;;;;;34.47;18.70;;;;;;;;;;5030066;28;20395;-52
2021/12/28 14:02:40;;;;;;;37.75;17.63;;;;;;;;;;5024733;28;20113;-50
2021/12/28 14:05:08;;;;;;;34.95;17.58;;;;;;;;;;5026965;28;20531;-55
2021/12/28 14:07:34;;;;;;;42.20;21.48;;;;;;;;;;5029057;28;20367;-53
2021/12/28 14:10:01;;;;;;;39.35;18.77;;;;;;;;;;5028333;28;20579;-49
2021/12/28 14:12:28;;;;;;;37.88;18.83;;;;;;;;;;5029952;28;20025;-54
2021/12/28 14:14:54;;;;;;;29.55;14.25;;;;;;;;;;5031634;28;20030;-50
2021/12/28 14:17:20;;;;;;;30.42;14.18;;;;;;;;;;5024434;28;20030;-53
2021/12/28 14:19:59;;;;;;;28.13;14.38;;;;;;;;;;5063375;28;20128;-53
2021/12/28 14:22:26;;;;;;;24.48;12.95;;;;;;;;;;5026517;28;20052;-57
2021/12/28 14:24:54;;;;;;;25.42;13.45;;;;;;;;;;5025324;28;20029;-51
2021/12/28 14:27:26;;;;;;;23.25;13.70;;;;;;;;;;5031602;28;20025;-53
2021/12/28 14:30:10;;;;;;;29.17;14.07;;;;;;;;;;5026368;28;20379;-54
2021/12/28 14:32:48;;;;;;;28.08;14.38;;;;;;;;;;5025773;28;20044;-54
2021/12/28 14:35:18;;;;;;;26.83;14.63;;;;;;;;;;5028239;28;20423;-52